createdAt,value
2023-04-10T00:02:23.009Z,38.35
2023-04-10T00:07:26.732Z,42.83
2023-04-10T00:12:29.751Z,44.33
2023-04-10T00:17:32.307Z,40.80
2023-04-10T00:22:34.859Z,41.90
2023-04-10T00:27:37.387Z,43.17
2023-04-10T00:32:40.172Z,43.40
2023-04-10T00:37:42.924Z,42.13
2023-04-10T00:42:45.697Z,47.25
2023-04-10T00:47:48.546Z,44.40
2023-04-10T00:52:51.869Z,35.38
2023-04-10T00:57:56.779Z,45.25
2023-04-10T01:03:01.775Z,41.97
2023-04-10T01:08:36.731Z,43.85
2023-04-10T01:13:51.037Z,44.03
2023-04-10T01:19:32.737Z,44.38
2023-04-10T01:25:08.005Z,42.05
2023-04-10T01:30:17.939Z,45.80
2023-04-10T01:35:21.698Z,40.58
2023-04-10T01:40:26.740Z,41.83
2023-04-10T01:45:29.666Z,49.65
2023-04-10T01:50:32.997Z,54.60
2023-04-10T01:55:37.811Z,44.63
2023-04-10T02:00:44.161Z,50.58
2023-04-10T02:06:16.238Z,57.97
2023-04-10T02:11:25.057Z,53.88
2023-04-10T02:16:29.783Z,52.67
2023-04-10T02:21:34.641Z,56.27
2023-04-10T02:26:53.624Z,59.38
2023-04-10T02:31:56.540Z,64.47
2023-04-10T02:36:59.145Z,58.60
2023-04-10T02:42:05.165Z,56.50
2023-04-10T02:47:08.244Z,59.53
2023-04-10T02:52:13.232Z,55.65
2023-04-10T02:57:17.007Z,56.90
2023-04-10T03:02:19.851Z,60.40
2023-04-10T03:07:22.987Z,59.75
2023-04-10T03:12:25.627Z,65.30
2023-04-10T03:17:28.205Z,66.18
2023-04-10T03:22:33.295Z,57.28
2023-04-10T03:27:36.534Z,60.63
2023-04-10T03:32:42.427Z,65.95
2023-04-10T03:37:45.349Z,69.90
2023-04-10T03:42:47.974Z,68.00
2023-04-10T03:47:52.570Z,64.70
2023-04-10T03:52:56.307Z,47.35
2023-04-10T03:58:00.979Z,68.13
2023-04-10T04:03:05.700Z,81.73
2023-04-10T04:08:26.865Z,68.32
2023-04-10T04:13:48.237Z,71.82
2023-04-10T04:19:03.830Z,76.55
2023-04-10T04:24:14.224Z,67.82
2023-04-10T04:29:31.241Z,63.57
2023-04-10T04:35:06.777Z,78.32
2023-04-10T04:40:32.247Z,82.10
2023-04-10T04:46:07.410Z,74.53
2023-04-10T04:51:48.146Z,74.03
2023-04-10T04:57:10.806Z,75.77
2023-04-10T05:02:45.543Z,74.22
2023-04-10T05:08:07.104Z,69.13
2023-04-10T05:13:35.776Z,74.40
2023-04-10T05:19:04.902Z,71.40
2023-04-10T05:24:26.509Z,68.50
2023-04-10T05:29:47.608Z,76.72
2023-04-10T05:35:19.461Z,64.70
2023-04-10T05:40:39.327Z,70.18
2023-04-10T05:46:00.440Z,65.25
2023-04-10T05:51:18.640Z,63.37
2023-04-10T05:56:41.453Z,59.40
2023-04-10T06:02:02.928Z,55.92
2023-04-10T06:07:06.314Z,56.65
2023-04-10T06:12:09.143Z,57.42
2023-04-10T06:17:14.214Z,53.93
2023-04-10T06:22:17.568Z,70.30
2023-04-10T06:27:20.554Z,47.58
2023-04-10T06:32:23.353Z,52.28
2023-04-10T06:37:31.590Z,61.22
2023-04-10T06:42:36.517Z,47.93
2023-04-10T06:47:51.663Z,52.00
2023-04-10T06:52:56.195Z,44.22
2023-04-10T06:57:58.975Z,54.05
2023-04-10T07:03:02.297Z,46.67
2023-04-10T07:08:05.067Z,48.13
2023-04-10T07:13:07.835Z,59.13
2023-04-10T07:18:10.555Z,51.40
2023-04-10T07:23:13.531Z,46.90
2023-04-10T07:28:16.106Z,51.08
2023-04-10T07:33:19.137Z,40.47
2023-04-10T07:38:22.603Z,45.33
2023-04-10T07:43:25.814Z,42.90
2023-04-10T07:48:28.481Z,51.65
2023-04-10T07:53:31.479Z,47.33
2023-04-10T07:58:34.221Z,44.87
2023-04-10T08:03:44.903Z,52.95
2023-04-10T08:08:48.237Z,54.60
2023-04-10T08:13:52.322Z,51.08
2023-04-10T08:18:57.737Z,39.75
2023-04-10T08:24:02.624Z,47.03
2023-04-10T08:29:05.446Z,53.35
2023-04-10T08:34:08.383Z,61.70
2023-04-10T08:39:11.128Z,35.17
2023-04-10T08:44:13.955Z,47.63
2023-04-10T08:49:23.581Z,62.60
2023-04-10T08:54:32.394Z,57.65
2023-04-10T08:59:35.279Z,49.42
2023-04-10T09:04:38.032Z,58.10
2023-04-10T09:09:41.036Z,62.22
2023-04-10T09:14:44.116Z,73.97
2023-04-10T09:19:49.048Z,75.85
2023-04-10T09:24:52.191Z,70.72
2023-04-10T09:29:54.979Z,81.18
2023-04-10T09:34:59.663Z,76.43
2023-04-10T09:40:03.149Z,78.77
2023-04-10T09:45:06.286Z,79.72
2023-04-10T09:50:09.120Z,59.50
2023-04-10T09:55:17.724Z,51.50
2023-04-10T10:00:21.199Z,77.05
2023-04-10T10:05:28.353Z,76.73
2023-04-10T10:10:31.522Z,92.32
2023-04-10T10:15:46.312Z,77.57
2023-04-10T10:20:50.724Z,74.72
2023-04-10T10:25:55.230Z,84.53
2023-04-10T10:30:58.416Z,85.90
2023-04-10T10:36:01.882Z,76.60
2023-04-10T10:41:21.953Z,78.28
2023-04-10T10:46:58.106Z,84.80
2023-04-10T10:52:00.857Z,56.70
2023-04-10T10:57:09.500Z,75.13
2023-04-10T11:02:19.942Z,65.78
2023-04-10T11:07:42.837Z,62.10
2023-04-10T11:13:18.571Z,68.53
2023-04-10T11:18:41.259Z,74.55
2023-04-10T11:23:58.827Z,63.70
2023-04-10T11:29:02.784Z,63.40
2023-04-10T11:34:08.139Z,61.28
2023-04-10T11:39:19.310Z,63.10
2023-04-10T11:44:35.650Z,61.30
2023-04-10T11:49:38.422Z,59.13
2023-04-10T11:54:49.460Z,69.60
2023-04-10T11:59:52.272Z,66.93
2023-04-10T12:04:59.469Z,57.33
2023-04-10T12:10:02.482Z,47.63
2023-04-10T12:15:30.509Z,65.97
2023-04-10T12:20:33.859Z,66.55
2023-04-10T12:25:36.880Z,67.55
2023-04-10T12:30:50.929Z,63.83
2023-04-10T12:35:54.624Z,63.53
2023-04-10T12:41:01.318Z,59.67
2023-04-10T12:46:05.474Z,54.58
2023-04-10T12:51:08.475Z,61.00
2023-04-10T12:56:12.590Z,58.75
2023-04-10T13:01:15.711Z,51.15
2023-04-10T13:06:18.826Z,58.03
2023-04-10T13:11:23.354Z,59.88
2023-04-10T13:16:26.172Z,39.00
2023-04-10T13:21:30.031Z,60.80
2023-04-10T13:26:32.704Z,45.63
2023-04-10T13:31:35.667Z,44.03
2023-04-10T13:36:38.629Z,56.75
2023-04-10T13:41:41.579Z,54.50
2023-04-10T13:46:44.407Z,54.78
2023-04-10T13:51:47.932Z,55.75
2023-04-10T13:56:50.924Z,63.00
2023-04-10T14:01:54.034Z,54.90
2023-04-10T14:07:00.258Z,56.30
2023-04-10T14:12:03.529Z,57.53
2023-04-10T14:17:06.659Z,59.80
2023-04-10T14:22:09.625Z,46.70
2023-04-10T14:27:13.533Z,46.15
2023-04-10T14:32:16.615Z,54.10
2023-04-10T14:37:19.500Z,52.00
2023-04-10T14:42:24.014Z,51.28
2023-04-10T14:47:27.088Z,57.53
2023-04-10T14:52:30.459Z,45.85
2023-04-10T14:57:33.291Z,50.00
2023-04-10T15:02:36.322Z,51.35
2023-04-10T15:07:39.263Z,51.97
2023-04-10T15:12:42.852Z,49.30
2023-04-10T15:17:45.645Z,46.25
2023-04-10T15:22:48.499Z,53.65
2023-04-10T15:27:51.414Z,58.53
2023-04-10T15:32:54.469Z,46.28
2023-04-10T15:38:00.569Z,66.27
2023-04-10T15:43:03.460Z,78.63
2023-04-10T15:48:06.986Z,65.63
2023-04-10T15:53:10.681Z,57.85
2023-04-10T15:58:13.498Z,61.45
2023-04-10T16:03:16.491Z,63.43
2023-04-10T16:08:20.107Z,60.63
2023-04-10T16:13:23.191Z,57.85
2023-04-10T16:18:26.142Z,58.53
2023-04-10T16:23:28.991Z,56.38
2023-04-10T16:28:31.938Z,64.87
2023-04-10T16:33:34.981Z,61.83
2023-04-10T16:38:37.933Z,58.00
2023-04-10T16:43:40.964Z,61.35
2023-04-10T16:48:44.308Z,62.38
2023-04-10T16:53:47.205Z,52.40
2023-04-10T16:58:50.115Z,50.83
2023-04-10T17:03:53.612Z,57.70
2023-04-10T17:08:56.912Z,51.25
2023-04-10T17:14:00.297Z,55.05
2023-04-10T17:19:03.397Z,47.70
2023-04-10T17:24:06.369Z,52.65
2023-04-10T17:29:09.221Z,51.35
2023-04-10T17:34:11.943Z,45.85
2023-04-10T17:39:14.850Z,43.40
2023-04-10T17:44:17.912Z,48.20
2023-04-10T17:49:24.063Z,48.72
2023-04-10T17:54:26.858Z,51.90
2023-04-10T17:59:32.785Z,48.40
2023-04-10T18:04:35.637Z,25.92
2023-04-10T18:09:38.444Z,7.43
2023-04-10T18:14:43.104Z,7.90
2023-04-10T18:19:45.919Z,8.75
2023-04-10T18:24:49.201Z,12.05
2023-04-10T18:29:51.874Z,9.02
2023-04-10T18:34:54.650Z,8.70
2023-04-10T18:40:00.979Z,8.77
2023-04-10T18:45:07.160Z,9.13
2023-04-10T18:50:11.853Z,8.75
2023-04-10T18:55:15.021Z,10.10
2023-04-10T19:00:17.900Z,10.37
2023-04-10T19:05:20.558Z,12.57
2023-04-10T19:10:23.356Z,11.32
2023-04-10T19:15:26.367Z,11.07
2023-04-10T19:20:51.106Z,8.80
2023-04-10T19:25:54.511Z,14.27
2023-04-10T19:30:57.763Z,10.07
2023-04-10T19:36:00.613Z,9.00
2023-04-10T19:41:03.645Z,10.02
2023-04-10T19:46:16.860Z,12.05
2023-04-10T19:51:19.819Z,10.43
2023-04-10T19:56:22.901Z,11.10
2023-04-10T20:01:25.870Z,10.63
2023-04-10T20:06:28.996Z,12.05
2023-04-10T20:11:31.909Z,13.90
2023-04-10T20:16:35.223Z,10.60
2023-04-10T20:21:38.179Z,13.55
2023-04-10T20:26:40.863Z,10.55
2023-04-10T20:31:44.360Z,14.52
2023-04-10T20:36:47.142Z,9.60
2023-04-10T20:41:49.917Z,11.30
2023-04-10T20:46:52.868Z,8.73
2023-04-10T20:51:56.004Z,10.55
2023-04-10T20:57:00.316Z,13.40
2023-04-10T21:02:03.239Z,12.40
2023-04-10T21:07:05.941Z,11.80
2023-04-10T21:12:08.672Z,12.93
2023-04-10T21:17:11.394Z,13.02
2023-04-10T21:22:14.217Z,16.60
2023-04-10T21:27:17.009Z,12.07
2023-04-10T21:32:19.947Z,11.17
2023-04-10T21:37:22.758Z,11.52
2023-04-10T21:42:25.506Z,13.18
2023-04-10T21:47:28.442Z,15.00
2023-04-10T21:52:32.457Z,13.57
2023-04-10T21:57:35.252Z,14.50
2023-04-10T22:02:38.183Z,16.48
2023-04-10T22:07:41.153Z,14.32
2023-04-10T22:12:46.006Z,26.30
2023-04-10T22:17:50.706Z,32.70
2023-04-10T22:22:53.845Z,22.53
2023-04-10T22:27:58.066Z,21.67
2023-04-10T22:33:00.777Z,16.98
2023-04-10T22:38:07.857Z,16.08
2023-04-10T22:43:11.263Z,13.57
2023-04-10T22:48:14.080Z,13.70
2023-04-10T22:53:17.015Z,15.25
2023-04-10T22:58:19.806Z,12.93
2023-04-10T23:03:22.656Z,15.30
2023-04-10T23:08:25.317Z,14.23
2023-04-10T23:13:28.172Z,11.13
2023-04-10T23:18:30.818Z,16.58
2023-04-10T23:23:33.462Z,17.80
2023-04-10T23:28:36.175Z,13.40
2023-04-10T23:33:38.941Z,13.43
2023-04-10T23:38:41.844Z,16.50
2023-04-10T23:43:45.280Z,11.48
2023-04-10T23:48:47.990Z,15.82
2023-04-10T23:53:50.921Z,15.68
2023-04-10T23:58:53.837Z,17.92
